Time;durP1;ratioP1;P1;durP2;ratioP2;P2;SDS_P1;SDS_P2;PMS_P1;PMS_P2;Temp;Humidity;BMP_temperature;BMP_pressure;BME280_temperature;BME280_humidity;BME280_pressure;Samples;Min_cycle;Max_cycle;Signal;HPM_P1;HPM_P2
2022/04/28 00:02:12;;;;;;;2.53;1.10;;;;;;;;;;5002004;28;20058;-59
2022/04/28 00:04:39;;;;;;;6.07;1.80;;;;;;;;;;5006264;28;20119;-61
2022/04/28 00:07:06;;;;;;;3.13;1.38;;;;;;;;;;5001601;28;20081;-61
2022/04/28 00:09:32;;;;;;;3.13;1.23;;;;;;;;;;5005865;28;20050;-61
2022/04/28 00:12:00;;;;;;;3.35;1.40;;;;;;;;;;5000796;28;20064;-58
2022/04/28 00:14:26;;;;;;;8.07;1.65;;;;;;;;;;5005986;28;20133;-58
2022/04/28 00:16:54;;;;;;;7.22;1.90;;;;;;;;;;5000878;28;20085;-59
2022/04/28 00:19:21;;;;;;;3.95;1.25;;;;;;;;;;5006467;28;20057;-59
2022/04/28 00:21:47;;;;;;;4.28;1.30;;;;;;;;;;5007129;28;20056;-60
2022/04/28 00:24:14;;;;;;;3.88;1.50;;;;;;;;;;5025945;28;20076;-60
2022/04/28 00:26:41;;;;;;;2.47;1.20;;;;;;;;;;5034342;28;20155;-58
2022/04/28 00:29:07;;;;;;;4.00;1.50;;;;;;;;;;5009063;28;20068;-60
2022/04/28 00:31:34;;;;;;;4.78;1.35;;;;;;;;;;5003625;28;20061;-58
2022/04/28 00:34:03;;;;;;;4.50;1.33;;;;;;;;;;5009256;28;20045;-63
2022/04/28 00:36:29;;;;;;;;;;;;;;;;;;5006657;28;20053;-62
2022/04/28 00:38:55;;;;;;;3.65;1.55;;;;;;;;;;5022431;28;19925;-61
2022/04/28 00:41:22;;;;;;;4.57;1.48;;;;;;;;;;5042238;28;20049;-60
2022/04/28 00:43:49;;;;;;;5.30;1.75;;;;;;;;;;5006393;28;20053;-60
2022/04/28 00:46:16;;;;;;;6.15;1.98;;;;;;;;;;5010006;28;20081;-64
2022/04/28 00:51:29;;;;;;;3.67;1.30;;;;;;;;;;5025931;28;20107;-61
2022/04/28 00:53:57;;;;;;;2.83;1.63;;;;;;;;;;4989603;28;20061;-62
2022/04/28 00:56:23;;;;;;;7.70;1.73;;;;;;;;;;5000178;28;20083;-64
2022/04/28 00:58:50;;;;;;;4.72;1.70;;;;;;;;;;5012787;28;20053;-62
2022/04/28 01:01:16;;;;;;;4.43;1.75;;;;;;;;;;5026788;28;20050;-60
2022/04/28 01:03:46;;;;;;;8.95;2.22;;;;;;;;;;5000929;28;20242;-58
2022/04/28 01:06:12;;;;;;;7.03;1.98;;;;;;;;;;4982993;28;20060;-59
2022/04/28 01:08:41;;;;;;;3.55;1.63;;;;;;;;;;4989918;28;20109;-57
2022/04/28 01:11:07;;;;;;;6.70;1.60;;;;;;;;;;5007474;28;20067;-60
2022/04/28 01:13:35;;;;;;;3.90;1.60;;;;;;;;;;5003892;28;20057;-58
2022/04/28 01:16:02;;;;;;;4.40;1.35;;;;;;;;;;4999093;28;20050;-58
2022/04/28 01:18:28;;;;;;;5.65;1.70;;;;;;;;;;5008939;28;20053;-59
2022/04/28 01:20:55;;;;;;;5.13;1.75;;;;;;;;;;5007462;28;20049;-57
2022/04/28 01:23:24;;;;;;;7.50;1.73;;;;;;;;;;5003543;28;20137;-60
2022/04/28 01:25:51;;;;;;;6.55;2.17;;;;;;;;;;4989477;28;20058;-61
2022/04/28 01:28:17;;;;;;;6.75;1.85;;;;;;;;;;5007120;28;20056;-59
2022/04/28 01:30:44;;;;;;;5.45;1.80;;;;;;;;;;5009568;28;20068;-58
2022/04/28 01:33:10;;;;;;;6.85;1.90;;;;;;;;;;4995365;28;20050;-60
2022/04/28 01:35:37;;;;;;;4.38;1.52;;;;;;;;;;5008283;28;20049;-61
2022/04/28 01:38:04;;;;;;;6.93;1.98;;;;;;;;;;4990054;28;20046;-61
2022/04/28 01:40:32;;;;;;;3.78;1.88;;;;;;;;;;5009149;28;20058;-60
2022/04/28 01:42:59;;;;;;;6.38;1.73;;;;;;;;;;4999215;28;20050;-60
2022/04/28 01:45:26;;;;;;;5.88;1.75;;;;;;;;;;5002635;28;20088;-62
2022/04/28 01:47:53;;;;;;;9.32;2.10;;;;;;;;;;5008588;28;20046;-60
2022/04/28 01:50:19;;;;;;;5.13;2.05;;;;;;;;;;5007737;28;20112;-60
2022/04/28 01:55:32;;;;;;;6.22;1.90;;;;;;;;;;4995512;28;20057;-59
2022/04/28 01:57:59;;;;;;;4.10;1.75;;;;;;;;;;5009338;28;20084;-60
2022/04/28 02:00:26;;;;;;;5.90;2.00;;;;;;;;;;4997569;28;20051;-58
2022/04/28 02:02:54;;;;;;;5.18;1.92;;;;;;;;;;4995080;28;20062;-60
2022/04/28 02:05:20;;;;;;;5.07;1.70;;;;;;;;;;5023758;28;20062;-59
2022/04/28 02:07:47;;;;;;;7.88;2.10;;;;;;;;;;5014566;28;20061;-60
2022/04/28 02:10:14;;;;;;;4.65;1.85;;;;;;;;;;5020912;28;20053;-61
2022/04/28 02:12:42;;;;;;;5.93;2.00;;;;;;;;;;5008911;28;20089;-57
2022/04/28 02:15:09;;;;;;;6.28;2.30;;;;;;;;;;5007955;28;20054;-59
2022/04/28 02:17:37;;;;;;;6.70;2.10;;;;;;;;;;4994313;28;20054;-59
2022/04/28 02:20:04;;;;;;;4.82;2.03;;;;;;;;;;5007632;28;20054;-60
2022/04/28 02:22:31;;;;;;;6.75;2.10;;;;;;;;;;4995119;28;20137;-61
2022/04/28 02:24:58;;;;;;;6.80;2.50;;;;;;;;;;5002060;28;20057;-63
2022/04/28 02:27:25;;;;;;;5.05;1.67;;;;;;;;;;5006222;28;20066;-60
2022/04/28 02:29:53;;;;;;;5.93;2.00;;;;;;;;;;4995506;28;20053;-59
2022/04/28 02:32:20;;;;;;;5.57;1.98;;;;;;;;;;5008875;28;20081;-61
2022/04/28 02:34:47;;;;;;;8.45;1.73;;;;;;;;;;4993972;28;20065;-63
2022/04/28 02:37:14;;;;;;;5.88;2.03;;;;;;;;;;5007244;28;20058;-59
2022/04/28 02:39:41;;;;;;;6.10;2.00;;;;;;;;;;5006128;28;20162;-60
2022/04/28 02:42:09;;;;;;;4.95;2.00;;;;;;;;;;4987865;28;20073;-62
2022/04/28 02:44:35;;;;;;;5.75;1.98;;;;;;;;;;5008054;28;20061;-59
2022/04/28 02:47:05;;;;;;;5.82;2.35;;;;;;;;;;5011606;28;20057;-59
2022/04/28 02:49:31;;;;;;;8.85;2.90;;;;;;;;;;5005517;28;20056;-60
2022/04/28 02:52:00;;;;;;;7.32;2.20;;;;;;;;;;4994669;28;20136;-58
2022/04/28 02:54:27;;;;;;;;;;;;;;;;;;5008991;28;20050;-61
2022/04/28 02:56:54;;;;;;;6.47;2.13;;;;;;;;;;5007043;28;20021;-59
2022/04/28 02:59:21;;;;;;;5.55;2.47;;;;;;;;;;4993470;28;20077;-63
2022/04/28 03:01:48;;;;;;;6.68;1.73;;;;;;;;;;5016872;28;20049;-58
2022/04/28 03:04:19;;;;;;;6.38;2.17;;;;;;;;;;5000767;28;20069;-58
2022/04/28 03:12:14;;;;;;;5.60;2.10;;;;;;;;;;5007557;28;20050;-60
2022/04/28 03:14:40;;;;;;;7.28;2.47;;;;;;;;;;4993376;28;20091;-60
2022/04/28 03:17:07;;;;;;;3.83;1.77;;;;;;;;;;5008607;28;20077;-59
2022/04/28 03:19:35;;;;;;;5.47;2.13;;;;;;;;;;5007132;28;20061;-62
2022/04/28 03:22:03;;;;;;;4.32;2.03;;;;;;;;;;5002605;28;20057;-60
2022/04/28 03:24:29;;;;;;;3.17;1.60;;;;;;;;;;5007332;28;20057;-60
2022/04/28 03:26:56;;;;;;;11.65;2.75;;;;;;;;;;5002319;28;20065;-61
2022/04/28 03:29:23;;;;;;;7.95;2.00;;;;;;;;;;4999083;28;20102;-60
2022/04/28 03:31:50;;;;;;;7.38;2.20;;;;;;;;;;5002092;28;20057;-59
2022/04/28 03:34:18;;;;;;;15.05;2.90;;;;;;;;;;4999728;28;20050;-61
2022/04/28 03:36:52;;;;;;;4.78;2.20;;;;;;;;;;5010554;28;20095;-58
2022/04/28 03:39:18;;;;;;;4.75;2.15;;;;;;;;;;5004420;28;20058;-60
2022/04/28 03:41:45;;;;;;;5.20;1.75;;;;;;;;;;4999262;28;20057;-59
2022/04/28 03:44:12;;;;;;;4.28;1.75;;;;;;;;;;5006013;28;20053;-63
2022/04/28 03:46:38;;;;;;;6.13;2.00;;;;;;;;;;4999372;28;20040;-59
2022/04/28 03:49:05;;;;;;;5.07;2.20;;;;;;;;;;5021645;28;20057;-58
2022/04/28 03:51:32;;;;;;;9.15;2.55;;;;;;;;;;4999869;28;20050;-59
2022/04/28 03:54:01;;;;;;;8.75;2.55;;;;;;;;;;5006772;28;20104;-60
2022/04/28 03:56:31;;;;;;;5.03;1.98;;;;;;;;;;4999710;28;20092;-58
2022/04/28 03:58:58;;;;;;;5.20;1.92;;;;;;;;;;4999097;28;20058;-58
2022/04/28 04:01:25;;;;;;;4.70;1.98;;;;;;;;;;4998294;28;20061;-60
2022/04/28 04:03:51;;;;;;;8.30;2.40;;;;;;;;;;5014220;28;20085;-58
2022/04/28 04:06:18;;;;;;;3.92;1.88;;;;;;;;;;5008530;28;20080;-60
2022/04/28 04:08:45;;;;;;;4.55;1.85;;;;;;;;;;5000610;28;20068;-62
2022/04/28 04:11:13;;;;;;;5.32;2.00;;;;;;;;;;5007067;28;20058;-61
2022/04/28 04:13:42;;;;;;;6.15;2.28;;;;;;;;;;5018629;28;20069;-59
2022/04/28 04:16:10;;;;;;;4.95;2.35;;;;;;;;;;5008074;28;20076;-61
2022/04/28 04:18:36;;;;;;;9.68;2.13;;;;;;;;;;5001870;28;20060;-63
2022/04/28 04:21:03;;;;;;;6.47;2.45;;;;;;;;;;5008707;28;20050;-60
2022/04/28 04:23:31;;;;;;;7.00;2.20;;;;;;;;;;5002269;28;20058;-61
2022/04/28 04:25:57;;;;;;;8.32;2.40;;;;;;;;;;5008436;28;20057;-62
2022/04/28 04:28:25;;;;;;;6.43;2.63;;;;;;;;;;5002473;28;20113;-59
2022/04/28 04:33:37;;;;;;;5.13;2.00;;;;;;;;;;5018341;28;20080;-58
2022/04/28 04:36:04;;;;;;;6.97;2.03;;;;;;;;;;5008402;28;20053;-59
2022/04/28 04:38:31;;;;;;;5.90;2.15;;;;;;;;;;5002673;28;20049;-59
2022/04/28 04:40:57;;;;;;;3.80;1.83;;;;;;;;;;5007638;28;20077;-59
2022/04/28 04:43:29;;;;;;;6.93;2.40;;;;;;;;;;4986603;28;20165;-58
2022/04/28 04:45:56;;;;;;;4.15;1.90;;;;;;;;;;5008308;28;20050;-58
2022/04/28 04:48:24;;;;;;;9.50;2.60;;;;;;;;;;5002865;28;20073;-58
2022/04/28 04:50:54;;;;;;;5.68;1.98;;;;;;;;;;5007200;28;20046;-58
2022/04/28 04:53:22;;;;;;;7.10;2.20;;;;;;;;;;5006498;28;20101;-58
2022/04/28 04:55:49;;;;;;;6.93;2.00;;;;;;;;;;5007072;28;20057;-59
2022/04/28 04:58:15;;;;;;;4.80;2.08;;;;;;;;;;5007713;28;20080;-58
2022/04/28 05:00:43;;;;;;;7.72;2.10;;;;;;;;;;5002077;28;20068;-60
2022/04/28 05:03:10;;;;;;;10.57;2.40;;;;;;;;;;5010634;28;20065;-62
2022/04/28 05:05:37;;;;;;;5.30;1.83;;;;;;;;;;5006584;28;20061;-59
2022/04/28 05:08:03;;;;;;;12.07;2.50;;;;;;;;;;5011658;28;20064;-60
2022/04/28 05:10:30;;;;;;;6.82;1.90;;;;;;;;;;5005952;28;20052;-60
2022/04/28 05:12:57;;;;;;;4.45;2.00;;;;;;;;;;5010748;28;20068;-57
2022/04/28 05:15:24;;;;;;;10.88;2.42;;;;;;;;;;5007147;28;20058;-60
2022/04/28 05:17:52;;;;;;;4.22;2.08;;;;;;;;;;5011335;28;20053;-61
2022/04/28 05:20:18;;;;;;;4.75;1.98;;;;;;;;;;5005649;28;20161;-58
2022/04/28 05:22:46;;;;;;;7.97;2.42;;;;;;;;;;5010900;28;20054;-62
2022/04/28 05:25:12;;;;;;;8.70;2.40;;;;;;;;;;5005186;28;20058;-62
2022/04/28 05:27:39;;;;;;;3.88;1.92;;;;;;;;;;5031067;28;20049;-60
2022/04/28 05:30:09;;;;;;;3.92;1.80;;;;;;;;;;5023927;28;20064;-60
2022/04/28 05:32:37;;;;;;;11.77;2.97;;;;;;;;;;5030168;28;20053;-57
2022/04/28 05:35:05;;;;;;;4.60;2.00;;;;;;;;;;5026311;28;20060;-62
2022/04/28 05:37:32;;;;;;;;;;;;;;;;;;5031100;28;20049;-62
2022/04/28 05:39:59;;;;;;;6.95;2.13;;;;;;;;;;5031175;28;19925;-62
2022/04/28 05:45:41;;;;;;;5.88;1.73;;;;;;;;;;5005937;28;20073;-62
2022/04/28 05:47:57;;;;;;;8.20;2.08;;;;;;;;;;5010282;28;20050;-59
2022/04/28 05:50:26;;;;;;;6.90;1.92;;;;;;;;;;5010293;28;20058;-61
2022/04/28 05:52:54;;;;;;;7.70;2.88;;;;;;;;;;5038823;28;20176;-59
2022/04/28 05:55:20;;;;;;;6.90;1.80;;;;;;;;;;5030861;28;20050;-59
2022/04/28 05:57:47;;;;;;;5.82;2.00;;;;;;;;;;5023918;28;20065;-62
2022/04/28 06:00:14;;;;;;;7.18;2.00;;;;;;;;;;5027130;28;20061;-59
2022/04/28 06:02:41;;;;;;;6.68;1.80;;;;;;;;;;5014184;28;20127;-57
2022/04/28 06:05:08;;;;;;;8.27;1.92;;;;;;;;;;5006237;28;20062;-58
2022/04/28 06:07:36;;;;;;;5.43;2.20;;;;;;;;;;5003291;28;20050;-62
2022/04/28 06:10:03;;;;;;;6.20;1.77;;;;;;;;;;5007682;28;20068;-62
2022/04/28 06:12:31;;;;;;;8.00;1.80;;;;;;;;;;5011521;28;20077;-57
2022/04/28 06:14:58;;;;;;;6.53;2.08;;;;;;;;;;5002088;28;20057;-57
2022/04/28 06:17:24;;;;;;;11.95;2.55;;;;;;;;;;5004923;28;20072;-57
2022/04/28 06:19:51;;;;;;;6.88;1.88;;;;;;;;;;5009541;28;20057;-58
2022/04/28 06:22:19;;;;;;;7.28;1.70;;;;;;;;;;5004670;28;20147;-58
2022/04/28 06:24:50;;;;;;;7.30;2.20;;;;;;;;;;5008471;28;20057;-60
2022/04/28 06:27:17;;;;;;;8.73;2.92;;;;;;;;;;5004748;28;20053;-58
2022/04/28 06:29:45;;;;;;;4.40;1.77;;;;;;;;;;4994892;28;20053;-61
2022/04/28 06:32:12;;;;;;;6.95;2.50;;;;;;;;;;5009469;28;20053;-59
2022/04/28 06:34:39;;;;;;;8.20;2.20;;;;;;;;;;5008813;28;20148;-58
2022/04/28 06:37:06;;;;;;;6.80;1.92;;;;;;;;;;5012540;28;20068;-58
2022/04/28 06:39:33;;;;;;;7.88;1.92;;;;;;;;;;5006659;28;20076;-59
2022/04/28 06:42:05;;;;;;;4.85;1.58;;;;;;;;;;5029564;28;20045;-62
2022/04/28 06:44:31;;;;;;;9.20;2.42;;;;;;;;;;5020143;28;20049;-58
2022/04/28 06:46:58;;;;;;;13.45;3.20;;;;;;;;;;5003124;28;20065;-60
2022/04/28 06:49:25;;;;;;;8.18;2.05;;;;;;;;;;5007352;28;20061;-60
2022/04/28 06:51:51;;;;;;;10.65;2.13;;;;;;;;;;5011966;28;20053;-58
2022/04/28 06:54:18;;;;;;;7.97;1.98;;;;;;;;;;5007692;28;20057;-59
2022/04/28 06:56:47;;;;;;;10.38;1.80;;;;;;;;;;5029303;28;20053;-58
2022/04/28 06:59:15;;;;;;;7.03;1.63;;;;;;;;;;5004856;28;20145;-59
2022/04/28 07:01:43;;;;;;;4.30;1.58;;;;;;;;;;5012159;28;20061;-58
2022/04/28 07:04:10;;;;;;;6.80;1.48;;;;;;;;;;5007139;28;20045;-58
2022/04/28 07:06:36;;;;;;;7.93;1.90;;;;;;;;;;5012927;28;20064;-58
2022/04/28 07:09:03;;;;;;;6.55;1.95;;;;;;;;;;5007293;28;20915;-59
2022/04/28 07:11:29;;;;;;;5.38;1.70;;;;;;;;;;5025899;28;20064;-61
2022/04/28 07:13:56;;;;;;;6.00;1.50;;;;;;;;;;5022496;28;20060;-59
2022/04/28 07:16:24;;;;;;;4.88;1.45;;;;;;;;;;5028528;28;20059;-63
2022/04/28 07:18:51;;;;;;;13.57;1.75;;;;;;;;;;5029536;28;20085;-62
2022/04/28 07:21:17;;;;;;;11.75;2.20;;;;;;;;;;5023935;28;20045;-58
2022/04/28 07:23:45;;;;;;;5.50;1.58;;;;;;;;;;5012213;28;20046;-58
2022/04/28 07:26:12;;;;;;;6.28;1.50;;;;;;;;;;5002564;28;20096;-61
2022/04/28 07:28:38;;;;;;;6.43;1.60;;;;;;;;;;5009426;28;20116;-58
2022/04/28 07:31:05;;;;;;;6.53;2.08;;;;;;;;;;5002967;28;20056;-61
2022/04/28 07:33:34;;;;;;;3.92;1.33;;;;;;;;;;4999822;28;20053;-59
2022/04/28 07:36:00;;;;;;;4.03;1.48;;;;;;;;;;4999982;28;20100;-59
2022/04/28 07:38:27;;;;;;;12.45;1.55;;;;;;;;;;5008588;28;20050;-61
2022/04/28 07:40:55;;;;;;;61.05;5.03;;;;;;;;;;5001822;28;20054;-62
2022/04/28 07:43:22;;;;;;;12.65;1.60;;;;;;;;;;5008957;28;20073;-59
2022/04/28 07:45:49;;;;;;;7.28;1.80;;;;;;;;;;5002972;28;20041;-60
2022/04/28 07:48:16;;;;;;;12.30;1.80;;;;;;;;;;5009027;28;20096;-59
2022/04/28 07:50:44;;;;;;;4.85;1.80;;;;;;;;;;5003045;28;20109;-62
2022/04/28 07:53:11;;;;;;;7.45;1.50;;;;;;;;;;5009503;28;20050;-59
2022/04/28 07:55:38;;;;;;;9.05;1.55;;;;;;;;;;5002831;28;20061;-59
2022/04/28 07:58:04;;;;;;;6.45;1.55;;;;;;;;;;5008275;28;20046;-58
2022/04/28 08:00:31;;;;;;;3.42;1.27;;;;;;;;;;5008238;28;20207;-58
2022/04/28 08:02:58;;;;;;;6.22;1.80;;;;;;;;;;5002697;28;20061;-58
2022/04/28 08:05:25;;;;;;;8.90;1.60;;;;;;;;;;4991321;28;20069;-58
2022/04/28 08:07:53;;;;;;;8.02;2.05;;;;;;;;;;5002458;28;20084;-59
2022/04/28 08:10:19;;;;;;;8.18;2.03;;;;;;;;;;5001743;28;20046;-59
2022/04/28 08:12:46;;;;;;;5.78;1.85;;;;;;;;;;5003788;28;20049;-59
2022/04/28 08:15:13;;;;;;;6.53;1.38;;;;;;;;;;5021265;28;20054;-61
2022/04/28 08:17:39;;;;;;;3.83;1.52;;;;;;;;;;5013168;28;20058;-59
2022/04/28 08:20:07;;;;;;;393.67;33.47;;;;;;;;;;5005291;28;20057;-62
2022/04/28 08:22:36;;;;;;;13.65;3.60;;;;;;;;;;4998634;28;20057;-58
2022/04/28 08:25:04;;;;;;;4.50;1.20;;;;;;;;;;5005517;28;20077;-59
2022/04/28 08:27:30;;;;;;;7.38;1.38;;;;;;;;;;4997148;28;20058;-62
2022/04/28 08:29:57;;;;;;;3.33;1.23;;;;;;;;;;5013773;28;20074;-60
2022/04/28 08:32:24;;;;;;;7.60;1.50;;;;;;;;;;4999732;28;20054;-59
2022/04/28 08:34:51;;;;;;;8.38;1.80;;;;;;;;;;5004021;28;20169;-59
2022/04/28 08:37:18;;;;;;;3.17;1.20;;;;;;;;;;5000020;28;20057;-60
2022/04/28 08:39:44;;;;;;;5.88;1.40;;;;;;;;;;4999233;28;20060;-62
2022/04/28 08:42:15;;;;;;;5.93;1.90;;;;;;;;;;5004179;28;20054;-59
2022/04/28 08:44:44;;;;;;;5.70;1.80;;;;;;;;;;5004531;28;20065;-63
2022/04/28 08:47:13;;;;;;;6.82;1.90;;;;;;;;;;4986702;28;20046;-60
2022/04/28 08:49:42;;;;;;;7.20;1.90;;;;;;;;;;4979912;28;20065;-60
2022/04/28 08:52:10;;;;;;;4.38;1.35;;;;;;;;;;4986173;28;20089;-59
2022/04/28 08:54:39;;;;;;;8.45;1.50;;;;;;;;;;4980281;28;20054;-61
2022/04/28 08:57:06;;;;;;;5.85;1.77;;;;;;;;;;4986583;28;20054;-61
2022/04/28 08:59:33;;;;;;;6.63;1.75;;;;;;;;;;4997665;28;20051;-58
2022/04/28 09:02:02;;;;;;;14.75;2.78;;;;;;;;;;4979321;28;20108;-57
2022/04/28 09:04:29;;;;;;;9.55;2.28;;;;;;;;;;4969704;28;20058;-59
2022/04/28 09:06:56;;;;;;;7.05;2.08;;;;;;;;;;4985858;28;20074;-57
2022/04/28 09:09:23;;;;;;;10.68;2.65;;;;;;;;;;4980406;28;20050;-52
2022/04/28 09:11:53;;;;;;;13.48;2.20;;;;;;;;;;4986420;28;20050;-49
2022/04/28 09:14:20;;;;;;;8.93;1.83;;;;;;;;;;4980783;28;20640;-50
2022/04/28 09:16:48;;;;;;;9.45;2.00;;;;;;;;;;4986932;28;20121;-52
2022/04/28 09:19:17;;;;;;;7.20;2.00;;;;;;;;;;4979612;28;20132;-50
2022/04/28 09:21:44;;;;;;;7.07;2.40;;;;;;;;;;4985615;28;20153;-58
2022/04/28 09:24:11;;;;;;;8.45;2.20;;;;;;;;;;4980283;28;20054;-55
2022/04/28 09:26:39;;;;;;;7.25;2.17;;;;;;;;;;4986223;28;20137;-47
2022/04/28 09:29:06;;;;;;;6.50;1.63;;;;;;;;;;4982786;28;20073;-50
2022/04/28 09:31:37;;;;;;;13.18;1.73;;;;;;;;;;4985395;28;20050;-54
2022/04/28 09:34:07;;;;;;;4.45;1.45;;;;;;;;;;4985976;28;20062;-68
2022/04/28 09:36:36;;;;;;;10.40;1.90;;;;;;;;;;4980204;28;20138;-60
2022/04/28 09:39:02;;;;;;;8.50;1.88;;;;;;;;;;4982266;28;20050;-68
2022/04/28 09:44:13;;;;;;;12.40;1.88;;;;;;;;;;4984157;28;20057;-65
2022/04/28 09:46:40;;;;;;;5.15;1.88;;;;;;;;;;4996992;28;20080;-65
2022/04/28 09:49:07;;;;;;;5.75;1.85;;;;;;;;;;4987342;28;20046;-56
2022/04/28 09:51:37;;;;;;;6.55;1.83;;;;;;;;;;5000639;28;20042;-65
2022/04/28 09:54:06;;;;;;;7.72;2.00;;;;;;;;;;4988606;28;20081;-60
2022/04/28 09:56:34;;;;;;;1059.50;86.57;;;;;;;;;;4982480;28;20053;-61
2022/04/28 09:59:01;;;;;;;35.78;7.05;;;;;;;;;;4988149;28;20069;-61
2022/04/28 10:01:29;;;;;;;8.93;2.08;;;;;;;;;;4994230;28;20062;-60
2022/04/28 10:03:57;;;;;;;8.17;2.30;;;;;;;;;;4982967;28;20145;-60
2022/04/28 10:06:24;;;;;;;7.43;2.08;;;;;;;;;;4981849;28;20377;-62
2022/04/28 10:08:53;;;;;;;8.70;1.92;;;;;;;;;;4989535;28;20061;-64
2022/04/28 10:11:22;;;;;;;6.72;1.75;;;;;;;;;;4980106;28;20066;-60
2022/04/28 10:13:50;;;;;;;8.45;2.20;;;;;;;;;;4984780;28;20113;-61
2022/04/28 10:16:18;;;;;;;436.45;30.63;;;;;;;;;;4978105;28;20137;-61
2022/04/28 10:18:47;;;;;;;61.38;13.77;;;;;;;;;;4987217;28;20058;-66
2022/04/28 10:21:15;;;;;;;11.40;2.30;;;;;;;;;;4983520;28;20062;-65
2022/04/28 10:35:04;;;;;;;1337.75;224.18;;;;;;;;;;4989534;28;20137;-59
2022/04/28 10:37:31;;;;;;;224.05;102.65;;;;;;;;;;4982520;28;20074;-60
2022/04/28 10:39:58;;;;;;;164.48;74.75;;;;;;;;;;4989237;28;20070;-59
2022/04/28 10:42:46;;;;;;;144.93;69.72;;;;;;;;;;4982426;28;20050;-60
2022/04/28 10:45:22;;;;;;;409.60;215.10;;;;;;;;;;4988691;28;20046;-60
2022/04/28 10:47:49;;;;;;;335.35;171.18;;;;;;;;;;4971533;28;20054;-59
2022/04/28 10:50:23;;;;;;;1999.90;284.33;;;;;;;;;;4986191;28;20050;-59
2022/04/28 10:52:54;;;;;;;128.27;61.63;;;;;;;;;;4982690;28;20050;-59
2022/04/28 10:55:23;;;;;;;34.22;18.75;;;;;;;;;;4988881;28;20141;-59
2022/04/28 10:57:50;;;;;;;126.00;58.58;;;;;;;;;;4983241;28;20054;-59
2022/04/28 11:00:32;;;;;;;20.65;6.13;;;;;;;;;;4988096;28;20093;-59
2022/04/28 11:02:59;;;;;;;10.30;3.80;;;;;;;;;;4977296;28;20061;-59
2022/04/28 11:05:40;;;;;;;150.18;64.30;;;;;;;;;;4989925;28;20148;-59
2022/04/28 11:08:10;;;;;;;228.75;109.95;;;;;;;;;;4982599;28;20078;-58
2022/04/28 11:10:52;;;;;;;225.25;112.47;;;;;;;;;;4988819;28;20137;-58
2022/04/28 11:13:22;;;;;;;191.55;94.00;;;;;;;;;;4981014;28;20051;-59
2022/04/28 11:15:50;;;;;;;144.98;73.45;;;;;;;;;;4989524;28;20117;-58
2022/04/28 11:18:18;;;;;;;72.63;35.83;;;;;;;;;;4988742;28;20097;-58
2022/04/28 11:20:45;;;;;;;145.25;70.82;;;;;;;;;;4983886;28;20061;-59
2022/04/28 11:23:11;;;;;;;64.75;32.25;;;;;;;;;;4987378;28;20058;-59
2022/04/28 11:25:38;;;;;;;121.18;58.78;;;;;;;;;;4980569;28;20178;-59
2022/04/28 11:28:08;;;;;;;45.95;23.42;;;;;;;;;;4986871;28;20068;-59
2022/04/28 11:30:35;;;;;;;111.00;51.10;;;;;;;;;;4981916;28;20161;-58
2022/04/28 11:33:03;;;;;;;573.10;48.50;;;;;;;;;;4988029;28;20039;-59
2022/04/28 11:35:31;;;;;;;123.72;23.23;;;;;;;;;;4981123;28;20046;-59
2022/04/28 11:37:57;;;;;;;94.20;50.30;;;;;;;;;;4988589;28;20082;-59
2022/04/28 11:40:24;;;;;;;96.13;47.40;;;;;;;;;;4981480;28;20058;-59
2022/04/28 11:42:56;;;;;;;52.60;24.42;;;;;;;;;;4988476;28;20070;-59
2022/04/28 11:45:23;;;;;;;70.35;35.35;;;;;;;;;;4982524;28;20070;-59
2022/04/28 11:47:51;;;;;;;24.20;11.27;;;;;;;;;;4988303;28;20145;-60
2022/04/28 11:50:20;;;;;;;12.75;3.80;;;;;;;;;;4980069;28;20061;-59
2022/04/28 11:52:57;;;;;;;73.15;33.83;;;;;;;;;;4987037;28;20136;-59
2022/04/28 11:55:25;;;;;;;70.15;35.35;;;;;;;;;;4982012;28;20046;-59
2022/04/28 11:57:52;;;;;;;58.20;29.75;;;;;;;;;;4987600;28;20062;-59
2022/04/28 12:00:19;;;;;;;38.17;19.33;;;;;;;;;;4981220;28;20054;-59
2022/04/28 12:02:46;;;;;;;40.67;20.35;;;;;;;;;;4983856;28;20069;-59
2022/04/28 12:05:16;;;;;;;1425.18;127.78;;;;;;;;;;4983094;28;20050;-58
2022/04/28 12:07:51;;;;;;;52.63;15.85;;;;;;;;;;4987461;28;20157;-59
2022/04/28 12:15:51;;;;;;;36.65;18.25;;;;;;;;;;4981713;28;20054;-59
2022/04/28 12:21:15;;;;;;;43.67;20.88;;;;;;;;;;4980755;28;20058;-59
2022/04/28 12:23:49;;;;;;;50.08;26.02;;;;;;;;;;4986641;28;20057;-58
2022/04/28 12:26:15;;;;;;;41.72;10.18;;;;;;;;;;4982522;28;20062;-60
2022/04/28 12:28:43;;;;;;;43.17;21.55;;;;;;;;;;4987606;28;20173;-60
2022/04/28 12:31:10;;;;;;;42.95;20.48;;;;;;;;;;4983693;28;20050;-59
2022/04/28 12:33:40;;;;;;;29.10;13.27;;;;;;;;;;4995874;28;20166;-59
2022/04/28 12:36:11;;;;;;;11.90;3.17;;;;;;;;;;4982714;28;20118;-59
2022/04/28 12:38:46;;;;;;;19.83;8.13;;;;;;;;;;4980674;28;20058;-61
2022/04/28 12:41:14;;;;;;;16.02;6.95;;;;;;;;;;4987106;28;20062;-61
2022/04/28 12:43:43;;;;;;;21.25;9.77;;;;;;;;;;4981068;28;20058;-61
2022/04/28 12:46:10;;;;;;;25.00;11.18;;;;;;;;;;4996516;28;20070;-61
2022/04/28 12:48:39;;;;;;;21.58;8.45;;;;;;;;;;4981128;28;20065;-62
2022/04/28 12:51:10;;;;;;;23.63;10.75;;;;;;;;;;4987565;28;20049;-60
2022/04/28 12:53:37;;;;;;;20.00;8.10;;;;;;;;;;4980698;28;20054;-59
2022/04/28 12:56:06;;;;;;;18.90;8.20;;;;;;;;;;4986669;28;20054;-59
2022/04/28 12:58:37;;;;;;;18.38;8.32;;;;;;;;;;4980326;28;20081;-62
2022/04/28 13:01:04;;;;;;;19.40;7.90;;;;;;;;;;4985214;28;20141;-61
2022/04/28 13:03:31;;;;;;;71.38;8.73;;;;;;;;;;4981257;28;20050;-61
2022/04/28 13:05:58;;;;;;;15.17;5.63;;;;;;;;;;4988229;28;20129;-61
2022/04/28 13:08:25;;;;;;;8.43;3.13;;;;;;;;;;4998519;28;20046;-61
2022/04/28 13:10:52;;;;;;;7.40;2.95;;;;;;;;;;5002191;28;20133;-61
2022/04/28 13:13:19;;;;;;;13.90;3.95;;;;;;;;;;4980179;28;20054;-70
2022/04/28 13:15:47;;;;;;;18.65;3.67;;;;;;;;;;5003205;28;20054;-61
2022/04/28 13:18:14;;;;;;;9.15;3.78;;;;;;;;;;4979407;28;20058;-60
2022/04/28 13:20:40;;;;;;;12.15;2.60;;;;;;;;;;4986167;28;20093;-61
2022/04/28 13:23:08;;;;;;;9.32;3.10;;;;;;;;;;4987974;28;20058;-61
2022/04/28 13:25:35;;;;;;;10.48;2.72;;;;;;;;;;4985771;28;20054;-60
2022/04/28 13:28:03;;;;;;;9.25;2.65;;;;;;;;;;4990402;28;20054;-60
2022/04/28 13:30:29;;;;;;;8.80;2.50;;;;;;;;;;4978196;28;20058;-61
2022/04/28 13:33:01;;;;;;;11.43;2.97;;;;;;;;;;4989860;28;20054;-61
2022/04/28 13:35:28;;;;;;;9.32;2.72;;;;;;;;;;4983932;28;20084;-61
2022/04/28 13:37:54;;;;;;;7.00;2.55;;;;;;;;;;4989500;28;20164;-61
2022/04/28 13:40:21;;;;;;;5.40;2.40;;;;;;;;;;5000056;28;20058;-61
2022/04/28 13:42:48;;;;;;;9.07;2.65;;;;;;;;;;4990600;28;20078;-59
2022/04/28 13:45:15;;;;;;;10.85;2.85;;;;;;;;;;4984762;28;20058;-61
2022/04/28 13:47:41;;;;;;;8.25;2.58;;;;;;;;;;4989957;28;20116;-60
2022/04/28 13:50:10;;;;;;;12.65;2.92;;;;;;;;;;4984483;28;20081;-60
2022/04/28 13:52:36;;;;;;;11.60;2.53;;;;;;;;;;4988544;28;20054;-60
2022/04/28 13:55:04;;;;;;;9.25;2.60;;;;;;;;;;4984956;28;20105;-62
2022/04/28 13:57:31;;;;;;;7.82;2.78;;;;;;;;;;4990398;28;20058;-61
2022/04/28 13:59:59;;;;;;;8.30;2.60;;;;;;;;;;4983574;28;20056;-60
2022/04/28 14:02:26;;;;;;;;;;;;;;;;;;5003447;28;20058;-63
2022/04/28 14:04:53;;;;;;;6.38;2.22;;;;;;;;;;4983940;28;20009;-61
2022/04/28 14:07:21;;;;;;;7.72;2.58;;;;;;;;;;4982873;28;20147;-63
2022/04/28 14:09:47;;;;;;;9.38;2.35;;;;;;;;;;4991739;28;20054;-60
2022/04/28 14:12:15;;;;;;;10.57;2.90;;;;;;;;;;4983811;28;20054;-60
2022/04/28 14:14:42;;;;;;;9.40;2.67;;;;;;;;;;4989568;28;20090;-63
2022/04/28 14:17:09;;;;;;;11.07;2.83;;;;;;;;;;4991734;28;20054;-59
2022/04/28 14:19:35;;;;;;;6.20;1.92;;;;;;;;;;5006493;28;20058;-59
2022/04/28 14:22:04;;;;;;;6.70;2.28;;;;;;;;;;4982055;28;20145;-59
2022/04/28 14:24:32;;;;;;;6.50;2.08;;;;;;;;;;4988529;28;20061;-58
2022/04/28 14:26:59;;;;;;;4.05;1.73;;;;;;;;;;4983227;28;20062;-60
2022/04/28 14:29:26;;;;;;;9.38;1.90;;;;;;;;;;4989410;28;20180;-58
2022/04/28 14:31:54;;;;;;;5.03;1.80;;;;;;;;;;4983171;28;20089;-60
2022/04/28 14:34:21;;;;;;;6.50;2.00;;;;;;;;;;5005814;28;20057;-58
2022/04/28 14:36:48;;;;;;;5.43;2.00;;;;;;;;;;4983249;28;20053;-58
2022/04/28 14:39:15;;;;;;;5.45;2.05;;;;;;;;;;4985405;28;20042;-59
2022/04/28 14:41:43;;;;;;;5.32;1.80;;;;;;;;;;4982755;28;20169;-58
2022/04/28 14:44:10;;;;;;;;;;;;;;;;;;5006368;28;20054;-60
2022/04/28 14:46:36;;;;;;;80.00;36.40;;;;;;;;;;4984577;28;19930;-59
2022/04/28 14:54:34;;;;;;;38.08;14.68;;;;;;;;;;4988392;28;20054;-59
2022/04/28 14:57:03;;;;;;;33.92;17.40;;;;;;;;;;4982394;28;20058;-58
2022/04/28 14:59:30;;;;;;;36.40;18.02;;;;;;;;;;4989486;28;20061;-60
2022/04/28 15:15:26;;;;;;;18.08;6.57;;;;;;;;;;4998787;28;20068;-57
2022/04/28 15:17:53;;;;;;;16.08;7.95;;;;;;;;;;4988400;28;20053;-57
2022/04/28 15:20:19;;;;;;;16.92;4.95;;;;;;;;;;4983379;28;20045;-58
2022/04/28 15:22:47;;;;;;;12.10;5.32;;;;;;;;;;5003962;28;20129;-58
2022/04/28 15:25:15;;;;;;;12.65;3.42;;;;;;;;;;4983117;28;20119;-57
2022/04/28 15:27:42;;;;;;;15.73;6.28;;;;;;;;;;4991556;28;20066;-58
2022/04/28 15:30:10;;;;;;;13.60;3.83;;;;;;;;;;4992825;28;20064;-59
2022/04/28 15:32:39;;;;;;;16.27;4.53;;;;;;;;;;4989380;28;20073;-59
2022/04/28 15:35:06;;;;;;;11.15;5.30;;;;;;;;;;4986489;28;20058;-58
2022/04/28 15:37:34;;;;;;;10.27;3.90;;;;;;;;;;5003415;28;20068;-58
2022/04/28 15:40:01;;;;;;;10.57;4.25;;;;;;;;;;4985494;28;20058;-58